Genmar Spyridon — V7BY9 — position and weather

sailwx.info

Track history (hours):
 
Tides and Currents Weather Stations Pressure Air Temp Water Temp Dewpoint Dewpoint Depression Visibility Wind Speed Wind Dir Waves Ship Positions

Genmar Spyridon

Last reported at 2015-May-25 14:27 UTC. Time now 2015-May-28 18:11 UTC.
Position S 19°34' E 057°50'.

Length 274 m; draft 15 m.

Type: Tanker. MMSI: 538001404.

Date/timePositionNaut miles runAvg speedWind from/ knotsBaromVisibWave heightAir tempDewpointWater temp
2015-May-25 14:27S 19°34' E 057°50'1213.1
2015-May-25 13:31S 19°39' E 057°39'1412.8
2015-May-25 12:26S 19°50' E 057°29'1213.6
2015-May-25 11:33S 20°02' E 057°27'6 6.0
2015-May-25 10:33S 20°08' E 057°27'0 0.3
2015-May-25 09:33S 20°08' E 057°27'1 1.0
2015-May-25 08:33S 20°07' E 057°27'1 0.9
2015-May-25 07:33S 20°06' E 057°26'5 5.1
2015-May-25 06:33S 20°03' E 057°22'9 9.4
2015-May-25 05:33S 19°57' E 057°14'0 0.1
2015-May-25 04:33S 19°57' E 057°14'0 0.2
2015-May-25 03:33S 19°57' E 057°14'0 0.3
2015-May-25 02:31S 19°57' E 057°14'0 0.2
2015-May-25 01:33S 19°57' E 057°14'1 0.7
2015-May-25 00:33S 19°58' E 057°14'6 6.4
2015-May-24 23:33S 20°03' E 057°10'1111.5
2015-May-24 22:33S 20°12' E 057°03'1211.4
2015-May-24 21:30S 20°22' E 056°56'  
2015-May-19 14:15S 34°28' E 032°04'2514.7
2015-May-19 12:33S 34°37' E 031°36'1313.2
2015-May-19 11:33S 34°40' E 031°20'  
Track history (hours):
 
Tides and Currents Weather Stations Pressure Air Temp Water Temp Dewpoint Dewpoint Depression Visibility Wind Speed Wind Dir Waves Ship Positions

Genmar Spyridon

Last reported at 2015-May-25 14:27 UTC. Time now 2015-May-28 18:11 UTC.
Position S 19°34' E 057°50'.

Length 274 m; draft 15 m.

Type: Tanker. MMSI: 538001404.

Date/timePositionNaut miles runAvg speedWind from/ knotsBaromVisibWave heightAir tempDewpointWater temp
2015-May-25 14:27S 19°34' E 057°50'1213.1
2015-May-25 13:31S 19°39' E 057°39'1412.8
2015-May-25 12:26S 19°50' E 057°29'1213.6
2015-May-25 11:33S 20°02' E 057°27'6 6.0
2015-May-25 10:33S 20°08' E 057°27'0 0.3
2015-May-25 09:33S 20°08' E 057°27'1 1.0
2015-May-25 08:33S 20°07' E 057°27'1 0.9
2015-May-25 07:33S 20°06' E 057°26'5 5.1
2015-May-25 06:33S 20°03' E 057°22'9 9.4
2015-May-25 05:33S 19°57' E 057°14'0 0.1
2015-May-25 04:33S 19°57' E 057°14'0 0.2
2015-May-25 03:33S 19°57' E 057°14'0 0.3
2015-May-25 02:31S 19°57' E 057°14'0 0.2
2015-May-25 01:33S 19°57' E 057°14'1 0.7
2015-May-25 00:33S 19°58' E 057°14'6 6.4
2015-May-24 23:33S 20°03' E 057°10'1111.5
2015-May-24 22:33S 20°12' E 057°03'1211.4
2015-May-24 21:30S 20°22' E 056°56'  
2015-May-19 14:15S 34°28' E 032°04'2514.7
2015-May-19 12:33S 34°37' E 031°36'1313.2
2015-May-19 11:33S 34°40' E 031°20'  

Dump ship's entire track history